sensor_id;sensor_type;location;lat;lon;timestamp;P1;durP1;ratioP1;P2;durP2;ratioP2
43088;SDS011;28709;52.030;5.652;2023-08-12T00:01:49;11.45;;;5.10;;
43088;SDS011;28709;52.030;5.652;2023-08-12T00:04:14;11.65;;;6.43;;
43088;SDS011;28709;52.030;5.652;2023-08-12T00:06:41;8.63;;;5.70;;
43088;SDS011;28709;52.030;5.652;2023-08-12T00:09:07;13.10;;;8.13;;
43088;SDS011;28709;52.030;5.652;2023-08-12T00:11:34;11.57;;;6.90;;
43088;SDS011;28709;52.030;5.652;2023-08-12T00:14:00;9.73;;;5.40;;
43088;SDS011;28709;52.030;5.652;2023-08-12T00:16:26;8.38;;;5.70;;
43088;SDS011;28709;52.030;5.652;2023-08-12T00:18:52;7.00;;;5.38;;
43088;SDS011;28709;52.030;5.652;2023-08-12T00:21:17;10.63;;;6.30;;
43088;SDS011;28709;52.030;5.652;2023-08-12T00:23:43;8.38;;;5.85;;
43088;SDS011;28709;52.030;5.652;2023-08-12T00:26:09;12.88;;;7.35;;
43088;SDS011;28709;52.030;5.652;2023-08-12T00:28:35;10.73;;;6.35;;
43088;SDS011;28709;52.030;5.652;2023-08-12T00:31:02;10.85;;;6.05;;
43088;SDS011;28709;52.030;5.652;2023-08-12T00:33:28;9.23;;;6.00;;
43088;SDS011;28709;52.030;5.652;2023-08-12T00:35:53;6.22;;;5.20;;
43088;SDS011;28709;52.030;5.652;2023-08-12T00:38:19;7.25;;;4.65;;
43088;SDS011;28709;52.030;5.652;2023-08-12T00:40:45;6.38;;;4.95;;
43088;SDS011;28709;52.030;5.652;2023-08-12T00:43:11;9.82;;;5.90;;
43088;SDS011;28709;52.030;5.652;2023-08-12T00:45:36;8.88;;;6.28;;
43088;SDS011;28709;52.030;5.652;2023-08-12T00:48:03;10.95;;;7.05;;
43088;SDS011;28709;52.030;5.652;2023-08-12T00:50:29;14.60;;;7.47;;
43088;SDS011;28709;52.030;5.652;2023-08-12T00:52:55;9.57;;;5.90;;
43088;SDS011;28709;52.030;5.652;2023-08-12T00:55:22;9.65;;;6.05;;
43088;SDS011;28709;52.030;5.652;2023-08-12T00:57:48;18.17;;;8.13;;
43088;SDS011;28709;52.030;5.652;2023-08-12T01:00:14;14.02;;;7.18;;
43088;SDS011;28709;52.030;5.652;2023-08-12T01:02:45;13.02;;;8.63;;
43088;SDS011;28709;52.030;5.652;2023-08-12T01:05:13;10.32;;;7.50;;
43088;SDS011;28709;52.030;5.652;2023-08-12T01:07:40;11.48;;;7.13;;
43088;SDS011;28709;52.030;5.652;2023-08-12T01:10:06;10.30;;;6.47;;
43088;SDS011;28709;52.030;5.652;2023-08-12T01:12:34;11.73;;;7.22;;
43088;SDS011;28709;52.030;5.652;2023-08-12T01:17:30;12.50;;;6.75;;
43088;SDS011;28709;52.030;5.652;2023-08-12T01:19:59;12.70;;;7.45;;
43088;SDS011;28709;52.030;5.652;2023-08-12T01:22:27;9.23;;;6.35;;
43088;SDS011;28709;52.030;5.652;2023-08-12T01:24:57;11.38;;;7.10;;
43088;SDS011;28709;52.030;5.652;2023-08-12T01:27:23;11.00;;;6.53;;
43088;SDS011;28709;52.030;5.652;2023-08-12T01:29:49;10.27;;;5.75;;
43088;SDS011;28709;52.030;5.652;2023-08-12T01:35:06;11.70;;;6.70;;
43088;SDS011;28709;52.030;5.652;2023-08-12T01:37:32;11.00;;;5.72;;
43088;SDS011;28709;52.030;5.652;2023-08-12T01:40:00;7.20;;;5.53;;
43088;SDS011;28709;52.030;5.652;2023-08-12T01:42:30;12.15;;;6.68;;
43088;SDS011;28709;52.030;5.652;2023-08-12T01:44:58;15.15;;;7.75;;
43088;SDS011;28709;52.030;5.652;2023-08-12T01:47:26;9.48;;;7.03;;
43088;SDS011;28709;52.030;5.652;2023-08-12T01:49:52;13.07;;;7.78;;
43088;SDS011;28709;52.030;5.652;2023-08-12T01:52:18;13.98;;;8.25;;
43088;SDS011;28709;52.030;5.652;2023-08-12T01:54:43;10.80;;;6.95;;
43088;SDS011;28709;52.030;5.652;2023-08-12T01:57:09;14.50;;;8.32;;
43088;SDS011;28709;52.030;5.652;2023-08-12T01:59:35;9.60;;;7.18;;
43088;SDS011;28709;52.030;5.652;2023-08-12T02:02:01;9.48;;;6.22;;
43088;SDS011;28709;52.030;5.652;2023-08-12T02:04:26;15.98;;;7.72;;
43088;SDS011;28709;52.030;5.652;2023-08-12T02:06:53;17.33;;;10.18;;
43088;SDS011;28709;52.030;5.652;2023-08-12T02:09:19;16.00;;;8.80;;
43088;SDS011;28709;52.030;5.652;2023-08-12T02:11:45;9.70;;;6.68;;
43088;SDS011;28709;52.030;5.652;2023-08-12T02:14:11;14.10;;;8.68;;
43088;SDS011;28709;52.030;5.652;2023-08-12T02:16:36;17.17;;;10.18;;
43088;SDS011;28709;52.030;5.652;2023-08-12T02:19:02;17.20;;;11.38;;
43088;SDS011;28709;52.030;5.652;2023-08-12T02:21:28;12.52;;;9.15;;
43088;SDS011;28709;52.030;5.652;2023-08-12T02:23:53;15.35;;;10.23;;
43088;SDS011;28709;52.030;5.652;2023-08-12T02:26:20;17.02;;;10.40;;
43088;SDS011;28709;52.030;5.652;2023-08-12T02:28:45;13.15;;;9.70;;
43088;SDS011;28709;52.030;5.652;2023-08-12T02:31:11;18.05;;;11.25;;
43088;SDS011;28709;52.030;5.652;2023-08-12T02:33:37;22.33;;;12.18;;
43088;SDS011;28709;52.030;5.652;2023-08-12T02:36:02;21.50;;;11.32;;
43088;SDS011;28709;52.030;5.652;2023-08-12T02:38:28;18.27;;;11.45;;
43088;SDS011;28709;52.030;5.652;2023-08-12T02:40:54;16.83;;;9.50;;
43088;SDS011;28709;52.030;5.652;2023-08-12T02:43:20;17.90;;;12.35;;
43088;SDS011;28709;52.030;5.652;2023-08-12T02:45:46;21.67;;;11.73;;
43088;SDS011;28709;52.030;5.652;2023-08-12T02:48:11;14.93;;;10.52;;
43088;SDS011;28709;52.030;5.652;2023-08-12T02:50:38;20.40;;;12.52;;
43088;SDS011;28709;52.030;5.652;2023-08-12T02:53:04;20.92;;;13.70;;
43088;SDS011;28709;52.030;5.652;2023-08-12T02:55:30;18.48;;;11.27;;
43088;SDS011;28709;52.030;5.652;2023-08-12T02:57:59;13.52;;;10.48;;
43088;SDS011;28709;52.030;5.652;2023-08-12T03:00:26;18.25;;;10.85;;
43088;SDS011;28709;52.030;5.652;2023-08-12T03:02:52;15.85;;;10.38;;
43088;SDS011;28709;52.030;5.652;2023-08-12T03:05:18;19.08;;;11.52;;
43088;SDS011;28709;52.030;5.652;2023-08-12T03:07:44;18.75;;;12.82;;
43088;SDS011;28709;52.030;5.652;2023-08-12T03:10:09;22.48;;;10.90;;
43088;SDS011;28709;52.030;5.652;2023-08-12T03:12:35;17.75;;;12.75;;
43088;SDS011;28709;52.030;5.652;2023-08-12T03:15:02;18.63;;;11.38;;
43088;SDS011;28709;52.030;5.652;2023-08-12T03:17:28;12.85;;;9.55;;
43088;SDS011;28709;52.030;5.652;2023-08-12T03:19:53;18.90;;;12.27;;
43088;SDS011;28709;52.030;5.652;2023-08-12T03:22:19;19.83;;;12.55;;
43088;SDS011;28709;52.030;5.652;2023-08-12T03:24:45;24.02;;;15.07;;
43088;SDS011;28709;52.030;5.652;2023-08-12T03:27:11;24.55;;;15.70;;
43088;SDS011;28709;52.030;5.652;2023-08-12T03:29:37;16.25;;;11.85;;
43088;SDS011;28709;52.030;5.652;2023-08-12T03:32:02;23.10;;;14.27;;
43088;SDS011;28709;52.030;5.652;2023-08-12T03:34:28;25.80;;;14.55;;
43088;SDS011;28709;52.030;5.652;2023-08-12T03:36:56;18.70;;;11.23;;
43088;SDS011;28709;52.030;5.652;2023-08-12T03:39:22;18.08;;;12.43;;
43088;SDS011;28709;52.030;5.652;2023-08-12T03:41:48;17.38;;;12.43;;
43088;SDS011;28709;52.030;5.652;2023-08-12T03:44:15;17.85;;;12.50;;
43088;SDS011;28709;52.030;5.652;2023-08-12T03:46:41;22.63;;;13.27;;
43088;SDS011;28709;52.030;5.652;2023-08-12T03:49:07;15.60;;;10.55;;
43088;SDS011;28709;52.030;5.652;2023-08-12T03:51:32;21.70;;;14.57;;
43088;SDS011;28709;52.030;5.652;2023-08-12T03:53:58;18.65;;;11.98;;
43088;SDS011;28709;52.030;5.652;2023-08-12T03:56:24;21.63;;;13.15;;
43088;SDS011;28709;52.030;5.652;2023-08-12T03:58:50;21.02;;;13.48;;
43088;SDS011;28709;52.030;5.652;2023-08-12T04:01:16;19.10;;;13.23;;
43088;SDS011;28709;52.030;5.652;2023-08-12T04:03:42;17.40;;;11.57;;
43088;SDS011;28709;52.030;5.652;2023-08-12T04:06:08;27.70;;;15.35;;
43088;SDS011;28709;52.030;5.652;2023-08-12T04:08:33;22.75;;;14.23;;
43088;SDS011;28709;52.030;5.652;2023-08-12T04:10:59;19.45;;;12.63;;
43088;SDS011;28709;52.030;5.652;2023-08-12T04:13:25;24.38;;;13.75;;
43088;SDS011;28709;52.030;5.652;2023-08-12T04:15:51;22.10;;;11.15;;
43088;SDS011;28709;52.030;5.652;2023-08-12T04:18:18;17.70;;;12.60;;
43088;SDS011;28709;52.030;5.652;2023-08-12T04:20:50;22.88;;;13.23;;
43088;SDS011;28709;52.030;5.652;2023-08-12T04:23:17;23.45;;;14.57;;
43088;SDS011;28709;52.030;5.652;2023-08-12T04:25:43;17.98;;;11.88;;
43088;SDS011;28709;52.030;5.652;2023-08-12T04:28:10;23.70;;;13.77;;
43088;SDS011;28709;52.030;5.652;2023-08-12T04:30:43;14.93;;;10.20;;
43088;SDS011;28709;52.030;5.652;2023-08-12T04:33:10;20.38;;;12.32;;
43088;SDS011;28709;52.030;5.652;2023-08-12T04:35:37;19.52;;;11.68;;
43088;SDS011;28709;52.030;5.652;2023-08-12T04:38:03;19.13;;;12.15;;
43088;SDS011;28709;52.030;5.652;2023-08-12T04:40:29;20.52;;;12.55;;
43088;SDS011;28709;52.030;5.652;2023-08-12T04:42:54;18.13;;;12.15;;
43088;SDS011;28709;52.030;5.652;2023-08-12T04:45:20;20.55;;;10.88;;
43088;SDS011;28709;52.030;5.652;2023-08-12T04:47:45;22.77;;;13.25;;
43088;SDS011;28709;52.030;5.652;2023-08-12T04:50:11;28.02;;;15.27;;
43088;SDS011;28709;52.030;5.652;2023-08-12T04:52:37;22.25;;;12.40;;
43088;SDS011;28709;52.030;5.652;2023-08-12T04:55:02;20.48;;;13.00;;
43088;SDS011;28709;52.030;5.652;2023-08-12T04:57:29;19.52;;;11.65;;
43088;SDS011;28709;52.030;5.652;2023-08-12T04:59:55;22.05;;;14.20;;
43088;SDS011;28709;52.030;5.652;2023-08-12T05:02:20;23.73;;;15.90;;
43088;SDS011;28709;52.030;5.652;2023-08-12T05:04:50;22.23;;;14.70;;
43088;SDS011;28709;52.030;5.652;2023-08-12T05:07:16;22.83;;;14.25;;
43088;SDS011;28709;52.030;5.652;2023-08-12T05:09:42;15.80;;;12.40;;
43088;SDS011;28709;52.030;5.652;2023-08-12T05:12:11;18.30;;;11.50;;
43088;SDS011;28709;52.030;5.652;2023-08-12T05:14:38;22.25;;;14.35;;
43088;SDS011;28709;52.030;5.652;2023-08-12T05:17:05;25.33;;;15.15;;
43088;SDS011;28709;52.030;5.652;2023-08-12T05:19:31;20.20;;;12.48;;
43088;SDS011;28709;52.030;5.652;2023-08-12T05:21:57;23.33;;;13.65;;
43088;SDS011;28709;52.030;5.652;2023-08-12T05:24:22;21.40;;;13.82;;
43088;SDS011;28709;52.030;5.652;2023-08-12T05:26:48;22.05;;;12.05;;
43088;SDS011;28709;52.030;5.652;2023-08-12T05:29:14;18.77;;;11.30;;
43088;SDS011;28709;52.030;5.652;2023-08-12T05:31:40;15.05;;;9.75;;
43088;SDS011;28709;52.030;5.652;2023-08-12T05:34:06;17.02;;;10.98;;
43088;SDS011;28709;52.030;5.652;2023-08-12T05:36:31;18.63;;;12.25;;
43088;SDS011;28709;52.030;5.652;2023-08-12T05:38:58;18.38;;;11.27;;
43088;SDS011;28709;52.030;5.652;2023-08-12T05:41:23;22.35;;;12.05;;
43088;SDS011;28709;52.030;5.652;2023-08-12T05:43:49;18.27;;;11.68;;
43088;SDS011;28709;52.030;5.652;2023-08-12T05:46:15;18.58;;;13.98;;
43088;SDS011;28709;52.030;5.652;2023-08-12T05:48:40;20.90;;;12.52;;
43088;SDS011;28709;52.030;5.652;2023-08-12T05:51:06;18.88;;;12.18;;
43088;SDS011;28709;52.030;5.652;2023-08-12T05:53:32;19.25;;;12.00;;
43088;SDS011;28709;52.030;5.652;2023-08-12T05:55:58;19.15;;;12.05;;
43088;SDS011;28709;52.030;5.652;2023-08-12T05:58:24;15.73;;;10.30;;
43088;SDS011;28709;52.030;5.652;2023-08-12T06:00:50;14.43;;;10.75;;
43088;SDS011;28709;52.030;5.652;2023-08-12T06:03:16;17.10;;;10.45;;
43088;SDS011;28709;52.030;5.652;2023-08-12T06:05:42;14.52;;;9.77;;
43088;SDS011;28709;52.030;5.652;2023-08-12T06:08:09;17.30;;;11.23;;
43088;SDS011;28709;52.030;5.652;2023-08-12T06:10:35;20.17;;;11.90;;
43088;SDS011;28709;52.030;5.652;2023-08-12T06:13:00;19.02;;;11.10;;
43088;SDS011;28709;52.030;5.652;2023-08-12T06:15:26;19.25;;;10.52;;
43088;SDS011;28709;52.030;5.652;2023-08-12T06:17:52;17.77;;;10.48;;
43088;SDS011;28709;52.030;5.652;2023-08-12T06:20:17;15.77;;;10.65;;
43088;SDS011;28709;52.030;5.652;2023-08-12T06:22:43;13.52;;;9.55;;
43088;SDS011;28709;52.030;5.652;2023-08-12T06:25:08;12.60;;;9.40;;
43088;SDS011;28709;52.030;5.652;2023-08-12T06:27:34;14.32;;;9.10;;
43088;SDS011;28709;52.030;5.652;2023-08-12T06:30:00;17.42;;;10.25;;
43088;SDS011;28709;52.030;5.652;2023-08-12T06:32:25;17.05;;;10.57;;
43088;SDS011;28709;52.030;5.652;2023-08-12T06:34:51;17.90;;;11.05;;
43088;SDS011;28709;52.030;5.652;2023-08-12T06:37:16;15.40;;;10.45;;
43088;SDS011;28709;52.030;5.652;2023-08-12T06:39:42;12.15;;;8.93;;
43088;SDS011;28709;52.030;5.652;2023-08-12T06:42:08;13.73;;;9.88;;
43088;SDS011;28709;52.030;5.652;2023-08-12T06:44:33;14.93;;;8.23;;
43088;SDS011;28709;52.030;5.652;2023-08-12T06:46:59;15.40;;;9.07;;
43088;SDS011;28709;52.030;5.652;2023-08-12T06:49:25;11.52;;;6.60;;
43088;SDS011;28709;52.030;5.652;2023-08-12T06:51:50;13.18;;;7.88;;
43088;SDS011;28709;52.030;5.652;2023-08-12T06:54:16;9.05;;;6.88;;
43088;SDS011;28709;52.030;5.652;2023-08-12T06:56:42;8.90;;;6.35;;
43088;SDS011;28709;52.030;5.652;2023-08-12T06:59:07;9.57;;;6.75;;
43088;SDS011;28709;52.030;5.652;2023-08-12T07:01:33;14.30;;;6.57;;
43088;SDS011;28709;52.030;5.652;2023-08-12T07:03:59;10.98;;;6.10;;
43088;SDS011;28709;52.030;5.652;2023-08-12T07:06:25;10.57;;;6.80;;
43088;SDS011;28709;52.030;5.652;2023-08-12T07:08:50;9.05;;;5.07;;
43088;SDS011;28709;52.030;5.652;2023-08-12T07:11:16;8.05;;;4.55;;
43088;SDS011;28709;52.030;5.652;2023-08-12T07:13:42;10.93;;;6.30;;
43088;SDS011;28709;52.030;5.652;2023-08-12T07:16:11;5.43;;;3.95;;
43088;SDS011;28709;52.030;5.652;2023-08-12T07:18:37;6.28;;;4.20;;
43088;SDS011;28709;52.030;5.652;2023-08-12T07:21:02;7.25;;;4.35;;
43088;SDS011;28709;52.030;5.652;2023-08-12T07:23:28;8.02;;;4.30;;
43088;SDS011;28709;52.030;5.652;2023-08-12T07:25:54;6.63;;;4.53;;
43088;SDS011;28709;52.030;5.652;2023-08-12T07:28:20;5.53;;;4.68;;
43088;SDS011;28709;52.030;5.652;2023-08-12T07:30:47;7.45;;;4.82;;
43088;SDS011;28709;52.030;5.652;2023-08-12T07:33:14;12.10;;;5.63;;
43088;SDS011;28709;52.030;5.652;2023-08-12T07:35:40;8.05;;;4.82;;
43088;SDS011;28709;52.030;5.652;2023-08-12T07:38:06;7.55;;;4.88;;
43088;SDS011;28709;52.030;5.652;2023-08-12T07:40:31;10.18;;;5.65;;
43088;SDS011;28709;52.030;5.652;2023-08-12T07:42:57;8.05;;;5.43;;
43088;SDS011;28709;52.030;5.652;2023-08-12T07:45:23;8.65;;;5.97;;
43088;SDS011;28709;52.030;5.652;2023-08-12T07:47:49;6.47;;;4.93;;
43088;SDS011;28709;52.030;5.652;2023-08-12T07:50:15;8.25;;;6.22;;
43088;SDS011;28709;52.030;5.652;2023-08-12T07:52:40;13.02;;;6.80;;
43088;SDS011;28709;52.030;5.652;2023-08-12T07:55:06;6.65;;;4.80;;
43088;SDS011;28709;52.030;5.652;2023-08-12T07:57:32;9.18;;;5.78;;
43088;SDS011;28709;52.030;5.652;2023-08-12T07:59:58;7.25;;;4.50;;
43088;SDS011;28709;52.030;5.652;2023-08-12T08:02:23;7.22;;;4.72;;
43088;SDS011;28709;52.030;5.652;2023-08-12T08:04:49;8.55;;;5.47;;
43088;SDS011;28709;52.030;5.652;2023-08-12T08:07:15;6.20;;;4.25;;
43088;SDS011;28709;52.030;5.652;2023-08-12T08:09:41;7.20;;;5.05;;
43088;SDS011;28709;52.030;5.652;2023-08-12T08:12:08;5.30;;;4.00;;
43088;SDS011;28709;52.030;5.652;2023-08-12T08:14:34;7.90;;;4.63;;
43088;SDS011;28709;52.030;5.652;2023-08-12T08:17:00;9.35;;;4.22;;
43088;SDS011;28709;52.030;5.652;2023-08-12T08:19:26;4.22;;;3.60;;
43088;SDS011;28709;52.030;5.652;2023-08-12T08:21:51;4.43;;;3.35;;
43088;SDS011;28709;52.030;5.652;2023-08-12T08:24:17;4.35;;;3.10;;
43088;SDS011;28709;52.030;5.652;2023-08-12T08:26:43;4.70;;;2.85;;
43088;SDS011;28709;52.030;5.652;2023-08-12T08:29:10;3.03;;;2.55;;
43088;SDS011;28709;52.030;5.652;2023-08-12T08:31:36;3.53;;;2.80;;
43088;SDS011;28709;52.030;5.652;2023-08-12T08:34:02;2.55;;;2.00;;
43088;SDS011;28709;52.030;5.652;2023-08-12T08:36:27;2.42;;;1.90;;
43088;SDS011;28709;52.030;5.652;2023-08-12T08:38:53;2.03;;;1.80;;
43088;SDS011;28709;52.030;5.652;2023-08-12T08:41:19;2.15;;;1.50;;
43088;SDS011;28709;52.030;5.652;2023-08-12T08:43:47;1.50;;;1.40;;
43088;SDS011;28709;52.030;5.652;2023-08-12T08:46:16;1.70;;;1.27;;
43088;SDS011;28709;52.030;5.652;2023-08-12T08:48:42;1.83;;;1.45;;
43088;SDS011;28709;52.030;5.652;2023-08-12T08:51:09;1.30;;;1.20;;
43088;SDS011;28709;52.030;5.652;2023-08-12T08:53:39;1.30;;;1.20;;
43088;SDS011;28709;52.030;5.652;2023-08-12T08:56:08;1.20;;;1.10;;
43088;SDS011;28709;52.030;5.652;2023-08-12T08:58:39;0.95;;;0.90;;
43088;SDS011;28709;52.030;5.652;2023-08-12T09:01:07;0.80;;;0.80;;
43088;SDS011;28709;52.030;5.652;2023-08-12T09:03:35;0.88;;;0.77;;
43088;SDS011;28709;52.030;5.652;2023-08-12T09:06:02;0.93;;;0.80;;
43088;SDS011;28709;52.030;5.652;2023-08-12T09:08:29;0.60;;;0.60;;
43088;SDS011;28709;52.030;5.652;2023-08-12T09:10:57;0.70;;;0.70;;
43088;SDS011;28709;52.030;5.652;2023-08-12T09:13:24;0.88;;;0.80;;
43088;SDS011;28709;52.030;5.652;2023-08-12T09:15:50;0.55;;;0.55;;
43088;SDS011;28709;52.030;5.652;2023-08-12T09:18:16;0.65;;;0.65;;
43088;SDS011;28709;52.030;5.652;2023-08-12T09:20:42;0.60;;;0.60;;
43088;SDS011;28709;52.030;5.652;2023-08-12T09:23:08;0.32;;;0.30;;
43088;SDS011;28709;52.030;5.652;2023-08-12T09:25:38;0.57;;;0.57;;
43088;SDS011;28709;52.030;5.652;2023-08-12T09:28:09;0.52;;;0.52;;
43088;SDS011;28709;52.030;5.652;2023-08-12T09:30:36;0.70;;;0.70;;
43088;SDS011;28709;52.030;5.652;2023-08-12T09:33:03;1.63;;;0.70;;
43088;SDS011;28709;52.030;5.652;2023-08-12T09:35:39;0.70;;;0.70;;
43088;SDS011;28709;52.030;5.652;2023-08-12T09:38:06;0.60;;;0.60;;
43088;SDS011;28709;52.030;5.652;2023-08-12T09:40:35;0.80;;;0.80;;
43088;SDS011;28709;52.030;5.652;2023-08-12T09:43:02;1.00;;;0.73;;
43088;SDS011;28709;52.030;5.652;2023-08-12T09:45:28;2.08;;;0.82;;
43088;SDS011;28709;52.030;5.652;2023-08-12T09:47:55;0.73;;;0.60;;
43088;SDS011;28709;52.030;5.652;2023-08-12T09:50:21;0.55;;;0.52;;
43088;SDS011;28709;52.030;5.652;2023-08-12T09:52:48;0.60;;;0.60;;
43088;SDS011;28709;52.030;5.652;2023-08-12T09:55:15;0.73;;;0.70;;
43088;SDS011;28709;52.030;5.652;2023-08-12T09:57:42;0.60;;;0.60;;
43088;SDS011;28709;52.030;5.652;2023-08-12T10:00:12;2.22;;;1.10;;
43088;SDS011;28709;52.030;5.652;2023-08-12T10:02:42;2.10;;;1.17;;
43088;SDS011;28709;52.030;5.652;2023-08-12T10:05:23;5.28;;;1.63;;
43088;SDS011;28709;52.030;5.652;2023-08-12T10:07:52;5.28;;;1.60;;
43088;SDS011;28709;52.030;5.652;2023-08-12T10:10:18;4.13;;;1.80;;
43088;SDS011;28709;52.030;5.652;2023-08-12T10:12:46;4.68;;;1.85;;
43088;SDS011;28709;52.030;5.652;2023-08-12T10:15:12;5.72;;;2.05;;
43088;SDS011;28709;52.030;5.652;2023-08-12T10:17:38;2.70;;;1.83;;
43088;SDS011;28709;52.030;5.652;2023-08-12T10:20:06;3.38;;;1.88;;
43088;SDS011;28709;52.030;5.652;2023-08-12T10:22:51;2.97;;;1.60;;
43088;SDS011;28709;52.030;5.652;2023-08-12T10:28:45;4.53;;;1.70;;
43088;SDS011;28709;52.030;5.652;2023-08-12T10:31:13;4.57;;;1.42;;
43088;SDS011;28709;52.030;5.652;2023-08-12T10:33:39;2.13;;;1.10;;
43088;SDS011;28709;52.030;5.652;2023-08-12T10:36:05;3.63;;;1.40;;
43088;SDS011;28709;52.030;5.652;2023-08-12T10:38:32;4.15;;;1.30;;
43088;SDS011;28709;52.030;5.652;2023-08-12T10:41:14;4.93;;;1.50;;
43088;SDS011;28709;52.030;5.652;2023-08-12T10:48:57;7.97;;;1.20;;
43088;SDS011;28709;52.030;5.652;2023-08-12T10:51:40;3.90;;;1.45;;
43088;SDS011;28709;52.030;5.652;2023-08-12T10:59:47;4.15;;;1.60;;
43088;SDS011;28709;52.030;5.652;2023-08-12T11:02:26;4.40;;;1.60;;
43088;SDS011;28709;52.030;5.652;2023-08-12T11:04:57;3.55;;;1.52;;
43088;SDS011;28709;52.030;5.652;2023-08-12T11:07:39;3.42;;;1.30;;
43088;SDS011;28709;52.030;5.652;2023-08-12T11:12:40;3.70;;;1.33;;
43088;SDS011;28709;52.030;5.652;2023-08-12T11:15:07;6.07;;;1.33;;
43088;SDS011;28709;52.030;5.652;2023-08-12T11:17:36;3.92;;;1.40;;
43088;SDS011;28709;52.030;5.652;2023-08-12T11:20:05;2.75;;;1.27;;
43088;SDS011;28709;52.030;5.652;2023-08-12T11:22:32;6.72;;;2.00;;
43088;SDS011;28709;52.030;5.652;2023-08-12T11:25:01;4.65;;;1.40;;
43088;SDS011;28709;52.030;5.652;2023-08-12T11:27:27;2.97;;;1.30;;
43088;SDS011;28709;52.030;5.652;2023-08-12T11:29:53;3.97;;;1.45;;
43088;SDS011;28709;52.030;5.652;2023-08-12T11:32:19;3.45;;;1.80;;
43088;SDS011;28709;52.030;5.652;2023-08-12T11:34:44;3.22;;;1.60;;
43088;SDS011;28709;52.030;5.652;2023-08-12T11:37:10;4.03;;;1.40;;
43088;SDS011;28709;52.030;5.652;2023-08-12T11:39:36;5.43;;;1.58;;
43088;SDS011;28709;52.030;5.652;2023-08-12T11:42:03;2.80;;;0.95;;
43088;SDS011;28709;52.030;5.652;2023-08-12T11:44:29;3.30;;;1.17;;
43088;SDS011;28709;52.030;5.652;2023-08-12T11:46:55;4.32;;;1.33;;
43088;SDS011;28709;52.030;5.652;2023-08-12T11:49:20;4.20;;;1.30;;
43088;SDS011;28709;52.030;5.652;2023-08-12T11:51:46;5.18;;;1.70;;
43088;SDS011;28709;52.030;5.652;2023-08-12T11:54:14;6.32;;;1.75;;
43088;SDS011;28709;52.030;5.652;2023-08-12T11:56:40;4.43;;;1.35;;
43088;SDS011;28709;52.030;5.652;2023-08-12T11:59:06;5.53;;;1.40;;
43088;SDS011;28709;52.030;5.652;2023-08-12T12:01:32;4.20;;;1.60;;
43088;SDS011;28709;52.030;5.652;2023-08-12T12:04:01;5.13;;;1.55;;
43088;SDS011;28709;52.030;5.652;2023-08-12T12:06:28;6.70;;;1.70;;
43088;SDS011;28709;52.030;5.652;2023-08-12T12:09:01;6.82;;;2.45;;
43088;SDS011;28709;52.030;5.652;2023-08-12T12:11:38;5.05;;;1.45;;
43088;SDS011;28709;52.030;5.652;2023-08-12T12:14:04;6.07;;;1.55;;
43088;SDS011;28709;52.030;5.652;2023-08-12T12:16:41;5.97;;;1.55;;
43088;SDS011;28709;52.030;5.652;2023-08-12T12:19:09;3.38;;;1.17;;
43088;SDS011;28709;52.030;5.652;2023-08-12T12:21:42;5.18;;;1.58;;
43088;SDS011;28709;52.030;5.652;2023-08-12T12:24:09;4.25;;;1.10;;
43088;SDS011;28709;52.030;5.652;2023-08-12T12:26:35;4.75;;;1.50;;
43088;SDS011;28709;52.030;5.652;2023-08-12T12:29:02;4.07;;;1.02;;
43088;SDS011;28709;52.030;5.652;2023-08-12T12:31:28;5.20;;;1.27;;
43088;SDS011;28709;52.030;5.652;2023-08-12T12:33:57;4.13;;;1.38;;
43088;SDS011;28709;52.030;5.652;2023-08-12T12:36:23;8.80;;;1.85;;
43088;SDS011;28709;52.030;5.652;2023-08-12T12:38:48;5.45;;;1.73;;
43088;SDS011;28709;52.030;5.652;2023-08-12T12:41:14;4.22;;;1.30;;
43088;SDS011;28709;52.030;5.652;2023-08-12T12:43:40;4.70;;;1.55;;
43088;SDS011;28709;52.030;5.652;2023-08-12T12:46:05;3.97;;;1.42;;
43088;SDS011;28709;52.030;5.652;2023-08-12T12:48:32;5.07;;;1.65;;
43088;SDS011;28709;52.030;5.652;2023-08-12T12:50:58;4.78;;;1.65;;
43088;SDS011;28709;52.030;5.652;2023-08-12T12:53:23;5.43;;;1.35;;
43088;SDS011;28709;52.030;5.652;2023-08-12T12:55:49;3.53;;;1.30;;
43088;SDS011;28709;52.030;5.652;2023-08-12T12:58:15;3.85;;;1.30;;
43088;SDS011;28709;52.030;5.652;2023-08-12T13:00:41;3.30;;;1.02;;
43088;SDS011;28709;52.030;5.652;2023-08-12T13:03:07;5.97;;;1.40;;
43088;SDS011;28709;52.030;5.652;2023-08-12T13:05:32;6.13;;;1.80;;
43088;SDS011;28709;52.030;5.652;2023-08-12T13:07:58;7.88;;;1.90;;
43088;SDS011;28709;52.030;5.652;2023-08-12T13:10:24;5.60;;;1.77;;
43088;SDS011;28709;52.030;5.652;2023-08-12T13:12:49;4.38;;;1.10;;
43088;SDS011;28709;52.030;5.652;2023-08-12T13:15:15;5.88;;;1.45;;
43088;SDS011;28709;52.030;5.652;2023-08-12T13:17:40;3.58;;;1.13;;
43088;SDS011;28709;52.030;5.652;2023-08-12T13:20:06;5.88;;;1.50;;
43088;SDS011;28709;52.030;5.652;2023-08-12T13:22:33;5.70;;;1.50;;
43088;SDS011;28709;52.030;5.652;2023-08-12T13:24:58;4.22;;;1.50;;
43088;SDS011;28709;52.030;5.652;2023-08-12T13:27:24;5.10;;;1.42;;
43088;SDS011;28709;52.030;5.652;2023-08-12T13:29:49;4.03;;;1.33;;
43088;SDS011;28709;52.030;5.652;2023-08-12T13:32:15;6.82;;;2.03;;
43088;SDS011;28709;52.030;5.652;2023-08-12T13:34:41;5.20;;;1.58;;
43088;SDS011;28709;52.030;5.652;2023-08-12T13:37:09;5.45;;;1.48;;
43088;SDS011;28709;52.030;5.652;2023-08-12T13:39:35;5.63;;;1.70;;
43088;SDS011;28709;52.030;5.652;2023-08-12T13:42:01;5.68;;;1.90;;
43088;SDS011;28709;52.030;5.652;2023-08-12T13:44:26;4.38;;;1.42;;
43088;SDS011;28709;52.030;5.652;2023-08-12T13:46:52;7.85;;;2.17;;
43088;SDS011;28709;52.030;5.652;2023-08-12T13:49:17;3.92;;;1.48;;
43088;SDS011;28709;52.030;5.652;2023-08-12T13:51:43;4.95;;;1.70;;
43088;SDS011;28709;52.030;5.652;2023-08-12T13:54:09;6.57;;;1.85;;
43088;SDS011;28709;52.030;5.652;2023-08-12T13:56:34;7.72;;;1.95;;
43088;SDS011;28709;52.030;5.652;2023-08-12T13:59:00;4.80;;;1.67;;
43088;SDS011;28709;52.030;5.652;2023-08-12T14:01:26;4.97;;;1.67;;
43088;SDS011;28709;52.030;5.652;2023-08-12T14:03:51;8.55;;;1.90;;
43088;SDS011;28709;52.030;5.652;2023-08-12T14:06:17;5.28;;;1.63;;
43088;SDS011;28709;52.030;5.652;2023-08-12T14:08:43;4.75;;;1.60;;
43088;SDS011;28709;52.030;5.652;2023-08-12T14:11:08;5.45;;;1.52;;
43088;SDS011;28709;52.030;5.652;2023-08-12T14:13:34;5.88;;;1.50;;
43088;SDS011;28709;52.030;5.652;2023-08-12T14:15:59;7.47;;;1.90;;
43088;SDS011;28709;52.030;5.652;2023-08-12T14:18:25;11.23;;;2.45;;
43088;SDS011;28709;52.030;5.652;2023-08-12T14:20:51;6.93;;;2.42;;
43088;SDS011;28709;52.030;5.652;2023-08-12T14:23:16;3.88;;;1.42;;
43088;SDS011;28709;52.030;5.652;2023-08-12T14:25:42;6.07;;;1.85;;
43088;SDS011;28709;52.030;5.652;2023-08-12T14:28:08;6.03;;;1.55;;
43088;SDS011;28709;52.030;5.652;2023-08-12T14:30:33;7.50;;;2.13;;
43088;SDS011;28709;52.030;5.652;2023-08-12T14:32:59;7.45;;;1.90;;
43088;SDS011;28709;52.030;5.652;2023-08-12T14:35:25;4.82;;;1.52;;
43088;SDS011;28709;52.030;5.652;2023-08-12T14:37:50;6.47;;;1.83;;
43088;SDS011;28709;52.030;5.652;2023-08-12T14:40:16;6.80;;;1.77;;
43088;SDS011;28709;52.030;5.652;2023-08-12T14:42:42;4.72;;;1.45;;
43088;SDS011;28709;52.030;5.652;2023-08-12T14:45:07;6.13;;;1.60;;
43088;SDS011;28709;52.030;5.652;2023-08-12T14:47:33;8.35;;;1.60;;
43088;SDS011;28709;52.030;5.652;2023-08-12T14:49:59;6.35;;;1.92;;
43088;SDS011;28709;52.030;5.652;2023-08-12T14:52:26;5.22;;;1.48;;
43088;SDS011;28709;52.030;5.652;2023-08-12T14:54:51;10.18;;;1.83;;
43088;SDS011;28709;52.030;5.652;2023-08-12T14:57:17;6.40;;;1.70;;